Time;durP1;ratioP1;P1;durP2;ratioP2;P2;SDS_P1;SDS_P2;PMS_P1;PMS_P2;Temp;Humidity;BMP_temperature;BMP_pressure;BME280_temperature;BME280_humidity;BME280_pressure;Samples;Min_cycle;Max_cycle;Signal;HPM_P1;HPM_P2
2022/11/04 00:01:38;;;;;;;1.13;0.98;;;18.80;54.10;;;;;;5115222;28;20048;-9
2022/11/04 00:04:04;;;;;;;0.80;0.80;;;18.80;54.70;;;;;;5114152;28;20086;-10
2022/11/04 00:06:29;;;;;;;1.33;0.90;;;18.80;54.20;;;;;;5115182;28;20043;-9
2022/11/04 00:08:57;;;;;;;1.30;0.95;;;18.90;54.20;;;;;;5115752;28;20043;-10
2022/11/04 00:14:08;;;;;;;0.98;0.93;;;18.80;54.20;;;;;;5115293;28;20050;-9
2022/11/04 00:19:19;;;;;;;1.02;0.93;;;18.80;54.20;;;;;;5115402;28;20046;-9
2022/11/04 00:29:53;;;;;;;0.98;0.77;;;18.80;54.20;;;;;;5114743;28;20055;-9
2022/11/04 00:35:03;;;;;;;0.88;0.88;;;18.80;54.20;;;;;;5114789;28;20533;-9
2022/11/04 00:37:29;;;;;;;1.25;1.00;;;18.80;54.20;;;;;;5114956;28;20043;-9
2022/11/04 00:39:54;;;;;;;1.00;1.00;;;18.80;54.40;;;;;;5114588;28;20055;-9
2022/11/04 00:42:20;;;;;;;1.10;1.00;;;18.80;54.20;;;;;;5114605;28;20051;-9
2022/11/04 00:44:45;;;;;;;0.93;0.70;;;18.80;54.20;;;;;;5114488;28;20048;-9
2022/11/04 00:47:11;;;;;;;1.00;0.88;;;18.80;54.20;;;;;;5114455;28;20067;-10
2022/11/04 00:49:37;;;;;;;0.93;0.85;;;18.80;54.20;;;;;;5114434;28;20109;-9
2022/11/04 00:52:03;;;;;;;1.10;1.00;;;18.80;54.20;;;;;;5114660;28;20500;-10
2022/11/04 00:54:28;;;;;;;1.00;0.90;;;18.80;54.20;;;;;;5114926;28;20066;-10
2022/11/04 00:56:54;;;;;;;1.30;0.90;;;18.80;54.20;;;;;;5114420;28;20039;-9
2022/11/04 00:59:20;;;;;;;1.55;0.90;;;18.80;54.20;;;;;;5114649;28;20138;-9
2022/11/04 01:01:45;;;;;;;1.45;0.85;;;18.80;54.20;;;;;;5114249;28;20048;-9
2022/11/04 01:04:11;;;;;;;1.20;0.90;;;18.80;54.20;;;;;;5114196;28;20052;-9
2022/11/04 01:06:36;;;;;;;1.45;0.90;;;18.80;54.20;;;;;;5114326;28;20104;-9
2022/11/04 01:09:05;;;;;;;1.10;0.98;;;18.80;54.20;;;;;;5114567;28;20403;-9
2022/11/04 01:11:31;;;;;;;1.00;0.75;;;18.80;54.30;;;;;;5114113;28;20434;-10
2022/11/04 01:13:57;;;;;;;1.88;1.00;;;18.80;54.20;;;;;;5114138;28;20055;-9
2022/11/04 01:16:23;;;;;;;1.55;0.85;;;18.80;54.20;;;;;;5114210;28;20052;-10
2022/11/04 01:18:49;;;;;;;0.82;0.82;;;18.80;54.20;;;;;;5114054;28;20480;-9
2022/11/04 01:21:16;;;;;;;1.15;0.95;;;18.80;54.20;;;;;;5114181;28;20407;-10
2022/11/04 01:23:43;;;;;;;1.33;0.90;;;18.80;54.20;;;;;;5095547;28;20394;-9
2022/11/04 01:26:16;;;;;;;1.13;0.93;;;18.80;54.20;;;;;;5114536;28;20499;-10
2022/11/04 01:28:42;;;;;;;1.10;0.90;;;18.80;54.20;;;;;;5113895;28;20051;-10
2022/11/04 01:31:10;;;;;;;0.63;0.63;;;18.80;54.20;;;;;;5113759;28;20052;-9
2022/11/04 01:33:37;;;;;;;0.70;0.68;;;18.80;54.20;;;;;;5113831;28;20135;-9
2022/11/04 01:36:04;;;;;;;1.00;0.95;;;18.80;54.20;;;;;;5113827;28;20059;-9
2022/11/04 01:38:30;;;;;;;1.13;0.90;;;18.80;54.30;;;;;;5113620;28;20056;-10
2022/11/04 01:40:56;;;;;;;0.70;0.70;;;18.80;54.30;;;;;;5113740;28;20491;-10
2022/11/04 01:43:22;;;;;;;1.05;0.80;;;18.80;54.20;;;;;;5113331;28;20052;-9
2022/11/04 01:45:57;;;;;;;0.90;0.80;;;18.80;54.20;;;;;;5113486;28;20051;-9
2022/11/04 01:48:32;;;;;;;1.02;0.93;;;18.80;54.20;;;;;;5113270;28;20112;-9
2022/11/04 01:50:59;;;;;;;0.88;0.88;;;18.80;54.20;;;;;;5113815;28;20047;-10
2022/11/04 01:53:31;;;;;;;0.90;0.80;;;18.80;54.20;;;;;;5113428;28;20047;-10
2022/11/04 01:56:00;;;;;;;1.38;0.98;;;18.80;54.20;;;;;;5113249;28;20138;-9
2022/11/04 01:58:30;;;;;;;0.75;0.75;;;18.80;54.20;;;;;;5113192;28;20094;-9
2022/11/04 02:00:56;;;;;;;1.40;0.90;;;18.80;54.20;;;;;;5113434;28;20059;-9
2022/11/04 02:03:36;;;;;;;0.80;0.80;;;18.80;54.20;;;;;;5113095;28;20043;-9
2022/11/04 02:06:05;;;;;;;0.80;0.80;;;18.80;54.30;;;;;;5113398;28;20146;-10
2022/11/04 02:08:32;;;;;;;1.30;1.02;;;18.80;54.30;;;;;;5113640;28;20302;-9
2022/11/04 02:11:00;;;;;;;1.27;1.00;;;18.80;54.20;;;;;;5113087;28;20051;-10
2022/11/04 02:13:27;;;;;;;1.08;0.93;;;18.80;54.30;;;;;;5112913;28;20048;-9
2022/11/04 02:16:14;;;;;;;0.98;0.98;;;18.70;54.20;;;;;;5112883;28;20062;-9
2022/11/04 02:18:44;;;;;;;1.20;1.10;;;18.70;54.20;;;;;;5113218;28;20051;-9
2022/11/04 02:21:54;;;;;;;0.90;0.90;;;18.80;54.20;;;;;;5113016;28;20141;-9
2022/11/04 02:24:43;;;;;;;1.00;0.77;;;18.80;54.30;;;;;;5113429;28;20043;-10
2022/11/04 02:27:27;;;;;;;0.80;0.80;;;18.80;54.30;;;;;;5112432;28;20047;-9
2022/11/04 02:29:59;;;;;;;1.17;1.08;;;18.80;54.30;;;;;;5113355;28;20086;-10
2022/11/04 02:32:50;;;;;;;1.30;1.00;;;18.80;54.30;;;;;;5113256;28;20052;-10
2022/11/04 02:35:35;;;;;;;0.57;0.55;;;18.70;54.30;;;;;;5113571;28;20047;-10
2022/11/04 02:38:33;;;;;;;1.25;1.05;;;18.80;54.30;;;;;;5112572;28;20115;-10
2022/11/04 02:41:07;;;;;;;0.73;0.73;;;18.70;54.30;;;;;;5094771;28;20540;-10
2022/11/04 02:44:19;;;;;;;0.75;0.75;;;18.80;54.30;;;;;;5112605;28;20142;-10
2022/11/04 02:46:51;;;;;;;0.88;0.82;;;18.70;54.30;;;;;;5066875;28;20057;-10
2022/11/04 02:49:28;;;;;;;1.75;0.80;;;18.70;54.20;;;;;;5112884;28;20048;-10
2022/11/04 02:52:01;;;;;;;1.02;0.70;;;18.80;54.30;;;;;;5113236;28;20134;-9
2022/11/04 02:54:35;;;;;;;1.13;0.82;;;18.80;54.30;;;;;;5112754;28;20044;-9
2022/11/04 02:57:04;;;;;;;1.65;0.80;;;18.70;54.20;;;;;;5112631;28;20497;-10
2022/11/04 02:59:56;;;;;;;1.27;0.93;;;18.80;54.30;;;;;;5112810;28;20055;-9
2022/11/04 03:02:28;;;;;;;1.00;0.80;;;18.70;54.20;;;;;;5112521;28;20051;-9
2022/11/04 03:04:56;;;;;;;1.20;0.90;;;18.70;54.30;;;;;;5112538;28;20052;-9
2022/11/04 03:07:28;;;;;;;0.80;0.80;;;18.70;54.30;;;;;;5112802;28;20151;-10
2022/11/04 03:09:57;;;;;;;;;;;18.70;54.30;;;;;;5113690;28;20056;-9
2022/11/04 03:12:29;;;;;;;0.80;0.60;;;18.70;54.30;;;;;;5112369;28;20430;-10
2022/11/04 03:15:01;;;;;;;1.02;0.85;;;18.70;54.20;;;;;;5112630;28;20043;-10
2022/11/04 03:17:49;;;;;;;1.08;0.98;;;18.70;54.20;;;;;;5112607;28;20055;-10
2022/11/04 03:20:24;;;;;;;0.77;0.77;;;18.70;54.30;;;;;;5112269;28;20052;-9
2022/11/04 03:22:54;;;;;;;0.65;0.65;;;18.80;54.30;;;;;;5112663;28;20047;-9
2022/11/04 03:25:24;;;;;;;1.08;0.93;;;18.70;54.30;;;;;;5112435;28;20090;-9
2022/11/04 03:28:04;;;;;;;1.17;0.88;;;18.70;54.30;;;;;;5112258;28;20047;-10
2022/11/04 03:30:42;;;;;;;1.05;0.90;;;18.70;54.30;;;;;;5112227;28;20059;-9
2022/11/04 03:33:28;;;;;;;0.90;0.80;;;18.70;54.20;;;;;;5112555;28;20104;-10
2022/11/04 03:35:54;;;;;;;0.88;0.70;;;18.70;54.30;;;;;;5111983;28;20051;-10
2022/11/04 03:38:21;;;;;;;0.73;0.73;;;18.70;54.30;;;;;;5112144;28;20051;-10
2022/11/04 03:40:48;;;;;;;1.17;1.05;;;18.80;54.40;;;;;;5115369;28;20419;-10
2022/11/04 03:43:18;;;;;;;1.65;1.10;;;18.70;54.30;;;;;;5115431;28;20101;-9
2022/11/04 03:45:44;;;;;;;0.95;0.90;;;18.70;54.80;;;;;;5115520;28;20055;-10
2022/11/04 03:48:11;;;;;;;1.23;1.00;;;18.80;54.20;;;;;;5115264;28;20144;-9
2022/11/04 03:50:42;;;;;;;0.82;0.77;;;18.80;54.20;;;;;;5115383;28;20087;-9
2022/11/04 03:53:10;;;;;;;0.90;0.90;;;18.90;54.10;;;;;;5115586;28;20079;-9
2022/11/04 03:55:38;;;;;;;0.70;0.70;;;18.90;54.00;;;;;;5115374;28;20067;-9
2022/11/04 03:58:15;;;;;;;0.70;0.70;;;18.90;54.00;;;;;;5115488;28;20051;-10
2022/11/04 04:00:51;;;;;;;0.80;0.80;;;18.90;53.90;;;;;;5095322;28;20453;-10
2022/11/04 04:03:24;;;;;;;0.80;0.70;;;19.00;53.80;;;;;;5115210;28;20086;-9
2022/11/04 04:05:58;;;;;;;1.02;0.82;;;19.00;53.70;;;;;;5115004;28;20058;-9
2022/11/04 04:08:50;;;;;;;1.05;0.80;;;19.00;53.60;;;;;;5114919;28;20372;-9
2022/11/04 04:11:46;;;;;;;0.70;0.70;;;19.00;53.50;;;;;;5115186;28;20069;-10
2022/11/04 04:14:37;;;;;;;0.70;0.70;;;19.10;53.50;;;;;;5115007;28;20043;-9
2022/11/04 04:17:05;;;;;;;1.48;0.80;;;19.10;53.40;;;;;;5114665;28;20048;-9
2022/11/04 04:19:33;;;;;;;0.70;0.70;;;19.20;53.30;;;;;;5115464;28;20055;-9
2022/11/04 04:22:05;;;;;;;1.00;0.90;;;19.20;53.20;;;;;;5115242;28;20054;-9
2022/11/04 04:27:30;;;;;;;0.80;0.80;;;19.30;53.10;;;;;;5115131;28;20483;-10
2022/11/04 04:29:58;;;;;;;0.70;0.70;;;19.30;53.00;;;;;;5115185;28;20055;-10
2022/11/04 04:32:26;;;;;;;1.13;0.80;;;19.30;52.90;;;;;;5114741;28;20047;-9
2022/11/04 04:35:40;;;;;;;0.93;0.73;;;19.30;52.80;;;;;;5114681;28;20055;-9
2022/11/04 04:37:40;;;;;;;0.80;0.80;;;19.30;52.80;;;;;;5111609;28;20419;-10
2022/11/04 04:44:58;;;;;;;0.80;0.80;;;19.30;52.80;;;;;;5115141;28;20071;-9
2022/11/04 04:45:50;;;;;;;0.70;0.70;;;19.40;52.80;;;;;;5112812;28;20108;-9
2022/11/04 04:48:16;;;;;;;1.30;0.70;;;19.40;52.80;;;;;;5114432;28;20051;-10
2022/11/04 04:50:48;;;;;;;1.50;0.90;;;19.30;52.80;;;;;;5114246;28;20074;-9
2022/11/04 04:53:14;;;;;;;1.15;0.70;;;19.30;52.90;;;;;;5114195;28;20048;-9
2022/11/04 04:55:39;;;;;;;1.55;1.00;;;19.30;52.80;;;;;;5114485;28;20453;-9
2022/11/04 04:58:05;;;;;;;1.08;0.90;;;19.30;52.80;;;;;;5113800;28;20055;-10
2022/11/04 05:00:32;;;;;;;0.98;0.90;;;19.30;52.90;;;;;;5114922;28;20066;-10
2022/11/04 05:02:57;;;;;;;1.05;0.80;;;19.30;52.90;;;;;;5114239;28;20093;-10
2022/11/04 05:05:23;;;;;;;0.77;0.77;;;19.30;52.90;;;;;;5114368;28;20491;-10
2022/11/04 05:07:49;;;;;;;1.02;0.90;;;19.30;52.90;;;;;;5114165;28;20460;-10
2022/11/04 05:10:16;;;;;;;1.40;0.98;;;19.30;52.90;;;;;;5114184;28;20048;-9
2022/11/04 05:15:27;;;;;;;0.77;0.70;;;19.30;53.00;;;;;;5114262;28;20090;-9
2022/11/04 05:18:00;;;;;;;0.82;0.80;;;19.30;53.10;;;;;;5114071;28;20060;-10
2022/11/04 05:20:27;;;;;;;2.03;0.82;;;19.20;53.10;;;;;;5114414;28;20069;-9
2022/11/04 05:22:53;;;;;;;0.98;0.70;;;19.20;53.10;;;;;;5113866;28;20483;-10
2022/11/04 05:25:19;;;;;;;0.70;0.70;;;19.20;53.10;;;;;;5114044;28;20059;-10
2022/11/04 05:27:44;;;;;;;0.60;0.60;;;19.20;53.10;;;;;;5114096;28;20503;-10
2022/11/04 05:30:10;;;;;;;1.10;0.90;;;19.30;53.10;;;;;;5114039;28;20073;-10
2022/11/04 05:32:36;;;;;;;1.00;0.80;;;19.20;53.10;;;;;;5113894;28;20208;-9
2022/11/04 05:35:02;;;;;;;1.50;1.00;;;19.10;53.20;;;;;;5113782;28;20058;-9
2022/11/04 05:37:27;;;;;;;1.02;0.90;;;19.10;53.30;;;;;;5113821;28;20055;-10
2022/11/04 05:39:53;;;;;;;1.10;0.77;;;19.10;53.40;;;;;;5113644;28;20052;-9
2022/11/04 05:42:18;;;;;;;0.95;0.80;;;19.10;53.40;;;;;;5113792;28;20138;-9
2022/11/04 05:44:44;;;;;;;0.70;0.70;;;19.10;53.50;;;;;;5113585;28;20040;-9
2022/11/04 05:47:09;;;;;;;1.08;0.98;;;19.10;53.50;;;;;;5113495;28;20048;-9
2022/11/04 05:49:35;;;;;;;0.77;0.77;;;19.10;53.60;;;;;;5113415;28;20495;-9
2022/11/04 05:52:00;;;;;;;1.02;0.70;;;19.10;53.60;;;;;;5112254;28;20051;-9
2022/11/04 05:54:26;;;;;;;1.20;0.93;;;19.10;53.70;;;;;;5113557;28;20051;-9
2022/11/04 05:56:52;;;;;;;0.70;0.70;;;19.10;53.60;;;;;;5114000;28;20476;-10
2022/11/04 05:59:18;;;;;;;1.13;0.90;;;19.10;53.60;;;;;;5113738;28;20480;-9
2022/11/04 06:01:43;;;;;;;1.00;0.80;;;19.00;53.60;;;;;;5112441;28;20058;-9
2022/11/04 06:04:17;;;;;;;0.80;0.80;;;19.10;53.60;;;;;;5113557;28;20180;-9
2022/11/04 06:06:43;;;;;;;0.95;0.73;;;19.10;54.10;;;;;;5113291;28;20044;-9
2022/11/04 06:09:09;;;;;;;0.70;0.70;;;19.10;53.50;;;;;;5113324;28;20044;-10
2022/11/04 06:11:36;;;;;;;1.85;0.88;;;19.10;53.50;;;;;;5113506;28;20522;-10
2022/11/04 06:14:02;;;;;;;1.17;1.08;;;19.10;53.50;;;;;;5113310;28;20128;-9
2022/11/04 06:16:27;;;;;;;0.70;0.70;;;19.10;53.50;;;;;;5113273;28;20098;-9
2022/11/04 06:18:53;;;;;;;0.60;0.60;;;19.10;53.40;;;;;;5113158;28;20051;-10
2022/11/04 06:21:24;;;;;;;1.50;0.93;;;19.20;53.40;;;;;;5113671;28;20052;-9
2022/11/04 06:23:50;;;;;;;0.60;0.60;;;19.20;53.40;;;;;;5113399;28;20139;-9
2022/11/04 06:26:16;;;;;;;0.70;0.60;;;19.20;53.30;;;;;;5113033;28;20059;-10
2022/11/04 06:28:43;;;;;;;0.68;0.68;;;19.20;53.30;;;;;;5113003;28;20062;-10
2022/11/04 06:31:12;;;;;;;0.93;0.82;;;19.20;53.30;;;;;;5108983;28;20048;-9
2022/11/04 06:33:39;;;;;;;0.60;0.60;;;19.20;53.30;;;;;;5113230;28;20071;-9
2022/11/04 06:36:06;;;;;;;0.90;0.80;;;19.20;53.20;;;;;;5112926;28;20052;-9
2022/11/04 06:38:34;;;;;;;0.80;0.80;;;19.30;53.20;;;;;;5111982;28;20051;-9
2022/11/04 06:40:59;;;;;;;0.60;0.60;;;19.30;53.10;;;;;;5113049;28;20441;-9
2022/11/04 06:43:25;;;;;;;0.88;0.75;;;19.30;53.00;;;;;;5113018;28;20051;-9
2022/11/04 06:45:57;;;;;;;0.88;0.73;;;19.30;53.00;;;;;;5112491;28;20463;-9
2022/11/04 06:48:24;;;;;;;1.10;1.00;;;19.30;52.90;;;;;;5112385;28;20435;-10
2022/11/04 06:50:49;;;;;;;1.45;0.80;;;19.30;53.00;;;;;;5112522;28;20052;-10
2022/11/04 06:53:15;;;;;;;0.70;0.60;;;19.30;52.90;;;;;;5112291;28;20059;-9
2022/11/04 06:55:41;;;;;;;0.95;0.73;;;19.30;52.90;;;;;;5112746;28;20051;-9
2022/11/04 06:58:07;;;;;;;0.68;0.60;;;19.30;52.90;;;;;;5112469;28;20452;-10
2022/11/04 07:00:32;;;;;;;0.80;0.80;;;19.30;52.90;;;;;;5112651;28;20060;-10
2022/11/04 07:02:58;;;;;;;0.90;0.80;;;19.30;52.80;;;;;;5112543;28;20181;-9
2022/11/04 07:05:23;;;;;;;1.60;1.10;;;19.30;52.90;;;;;;5112497;28;20417;-9
2022/11/04 07:07:49;;;;;;;0.73;0.73;;;19.30;53.00;;;;;;5112367;28;20052;-10
2022/11/04 07:10:16;;;;;;;0.80;0.80;;;19.30;53.10;;;;;;5112383;28;20054;-9
2022/11/04 07:12:42;;;;;;;0.80;0.80;;;19.20;53.20;;;;;;5113824;28;20124;-9
2022/11/04 07:15:07;;;;;;;0.88;0.75;;;19.20;53.20;;;;;;5097584;28;20483;-10
2022/11/04 07:17:33;;;;;;;0.77;0.77;;;19.20;53.20;;;;;;5115753;28;20101;-9
2022/11/04 07:19:59;;;;;;;1.38;1.05;;;19.20;53.30;;;;;;5116173;28;20471;-9
2022/11/04 07:22:25;;;;;;;1.35;0.95;;;19.20;53.30;;;;;;5115710;28;20051;-10
2022/11/04 07:24:50;;;;;;;0.75;0.73;;;19.20;53.30;;;;;;5115676;28;20152;-9
2022/11/04 07:27:16;;;;;;;1.23;0.90;;;19.20;53.30;;;;;;5115683;28;20066;-10
2022/11/04 07:29:41;;;;;;;1.00;0.90;;;19.20;53.20;;;;;;5116021;28;20056;-10
2022/11/04 07:32:07;;;;;;;0.80;0.80;;;19.20;53.20;;;;;;5115699;28;20051;-9
2022/11/04 07:34:32;;;;;;;1.35;0.93;;;19.20;53.20;;;;;;5115600;28;20050;-9
2022/11/04 07:36:58;;;;;;;0.65;0.60;;;19.30;53.20;;;;;;5116233;28;20071;-9
2022/11/04 07:39:24;;;;;;;1.08;1.00;;;19.20;53.20;;;;;;5115467;28;20047;-9
2022/11/04 07:41:49;;;;;;;0.80;0.70;;;19.20;53.20;;;;;;5115497;28;20121;-10
2022/11/04 07:44:15;;;;;;;0.85;0.85;;;19.20;53.20;;;;;;5115463;28;20475;-9
2022/11/04 07:46:41;;;;;;;0.95;0.85;;;19.20;53.20;;;;;;5115340;28;20106;-9
2022/11/04 07:49:06;;;;;;;1.40;0.80;;;19.20;53.30;;;;;;5115659;28;20055;-9
2022/11/04 07:51:33;;;;;;;0.70;0.70;;;19.20;53.20;;;;;;5115407;28;20052;-9
2022/11/04 07:53:59;;;;;;;1.08;0.90;;;19.30;53.20;;;;;;5115335;28;20086;-9
2022/11/04 07:56:25;;;;;;;0.93;0.90;;;19.20;53.20;;;;;;5115266;28;20488;-10
2022/11/04 07:58:51;;;;;;;1.92;0.90;;;19.20;53.20;;;;;;5115824;28;20062;-9
2022/11/04 08:01:24;;;;;;;1.10;0.77;;;19.20;53.30;;;;;;5115780;28;20108;-10
2022/11/04 08:03:50;;;;;;;0.60;0.60;;;19.20;53.30;;;;;;5115460;28;20121;-10
2022/11/04 08:06:19;;;;;;;0.77;0.70;;;19.20;53.20;;;;;;5096852;28;20398;-10
2022/11/04 08:08:47;;;;;;;1.80;0.90;;;19.20;53.10;;;;;;5115482;28;20047;-10
2022/11/04 08:11:20;;;;;;;0.80;0.80;;;19.20;53.20;;;;;;5114918;28;20051;-10
2022/11/04 08:13:47;;;;;;;0.70;0.70;;;19.20;53.20;;;;;;5115166;28;20055;-10
2022/11/04 08:16:16;;;;;;;0.60;0.60;;;19.20;53.20;;;;;;5114805;28;20058;-10
2022/11/04 08:18:42;;;;;;;1.23;0.93;;;19.30;53.20;;;;;;5115017;28;20098;-10
2022/11/04 08:21:08;;;;;;;0.98;0.82;;;19.30;53.10;;;;;;5114909;28;20060;-10
2022/11/04 08:23:34;;;;;;;1.67;0.80;;;19.30;53.20;;;;;;5114566;28;20047;-10
2022/11/04 08:26:00;;;;;;;1.02;0.90;;;19.30;53.20;;;;;;5114097;28;20043;-10
2022/11/04 08:28:28;;;;;;;1.10;1.00;;;19.30;53.20;;;;;;5114797;28;20109;-10
2022/11/04 08:31:07;;;;;;;1.23;1.00;;;19.20;53.20;;;;;;5114885;28;20047;-10
2022/11/04 08:33:43;;;;;;;0.73;0.63;;;19.30;53.20;;;;;;5114656;28;20047;-10
2022/11/04 08:36:22;;;;;;;0.80;0.80;;;19.30;53.20;;;;;;5114962;28;20048;-10
2022/11/04 08:38:48;;;;;;;1.27;0.82;;;19.20;53.20;;;;;;5114270;28;20057;-10
2022/11/04 08:41:16;;;;;;;0.88;0.88;;;19.20;53.10;;;;;;5114459;28;20051;-10
2022/11/04 08:43:42;;;;;;;1.00;0.88;;;19.30;53.20;;;;;;5114350;28;20444;-10
2022/11/04 08:46:10;;;;;;;0.75;0.75;;;19.30;53.20;;;;;;5114381;28;20089;-10
2022/11/04 08:48:38;;;;;;;1.35;1.00;;;19.20;53.20;;;;;;5114716;28;20051;-10
2022/11/04 08:51:06;;;;;;;0.88;0.80;;;19.20;53.20;;;;;;5114656;28;20147;-11
2022/11/04 08:53:32;;;;;;;1.00;0.70;;;19.20;53.30;;;;;;5114432;28;20059;-11
2022/11/04 08:55:58;;;;;;;1.35;1.08;;;19.20;53.30;;;;;;5114105;28;20052;-10
2022/11/04 08:58:24;;;;;;;1.08;0.93;;;19.20;53.30;;;;;;5114137;28;20092;-10
2022/11/04 09:00:51;;;;;;;0.60;0.60;;;19.20;53.20;;;;;;5113792;28;20130;-10
2022/11/04 09:03:16;;;;;;;1.15;0.77;;;19.20;53.20;;;;;;5113780;28;20177;-11
2022/11/04 09:05:46;;;;;;;1.05;0.75;;;19.20;53.20;;;;;;5114470;28;20451;-10
2022/11/04 09:08:16;;;;;;;0.82;0.80;;;19.20;53.20;;;;;;5114105;28;20058;-10
2022/11/04 09:10:44;;;;;;;2.83;1.13;;;19.20;53.20;;;;;;5114236;28;20056;-10
2022/11/04 09:13:10;;;;;;;1.10;0.90;;;19.20;53.20;;;;;;5113963;28;20544;-10
2022/11/04 09:15:37;;;;;;;0.75;0.70;;;19.30;53.30;;;;;;5114044;28;20411;-10
2022/11/04 09:18:03;;;;;;;0.77;0.77;;;19.20;53.20;;;;;;5113924;28;20047;-11
2022/11/04 09:20:30;;;;;;;1.17;0.85;;;19.20;53.20;;;;;;5113847;28;20048;-10
2022/11/04 09:22:56;;;;;;;0.98;0.80;;;19.30;53.30;;;;;;5113750;28;20047;-10
2022/11/04 09:25:22;;;;;;;1.17;0.80;;;19.30;53.20;;;;;;5113862;28;20096;-10
2022/11/04 09:27:48;;;;;;;1.00;0.90;;;19.30;53.20;;;;;;5113750;28;20434;-10
2022/11/04 09:30:14;;;;;;;0.80;0.80;;;19.30;53.20;;;;;;5113769;28;20550;-10
2022/11/04 09:32:39;;;;;;;0.65;0.65;;;19.30;53.10;;;;;;5113697;28;20051;-10
2022/11/04 09:35:05;;;;;;;0.82;0.80;;;19.30;53.10;;;;;;5113901;28;20391;-10
2022/11/04 09:37:31;;;;;;;0.60;0.60;;;19.30;53.10;;;;;;5113545;28;20079;-10
2022/11/04 09:39:56;;;;;;;0.77;0.70;;;19.30;53.10;;;;;;5113878;28;20125;-10
2022/11/04 09:42:34;;;;;;;0.80;0.80;;;19.30;53.10;;;;;;5113592;28;20047;-10
2022/11/04 09:45:06;;;;;;;0.80;0.77;;;19.30;53.20;;;;;;5113763;28;20082;-10
2022/11/04 09:47:34;;;;;;;0.82;0.80;;;19.30;53.20;;;;;;5113425;28;20095;-10
2022/11/04 09:50:01;;;;;;;1.02;0.80;;;19.30;53.20;;;;;;5113393;28;20055;-10
2022/11/04 09:52:32;;;;;;;0.90;0.80;;;19.30;53.20;;;;;;5113277;28;20668;-10
2022/11/04 09:55:17;;;;;;;1.27;0.70;;;19.30;53.20;;;;;;5113432;28;20054;-10
2022/11/04 09:57:42;;;;;;;1.15;0.80;;;19.30;53.10;;;;;;5113391;28;20052;-10
2022/11/04 10:00:15;;;;;;;0.80;0.80;;;19.30;53.00;;;;;;5112960;28;20512;-11
2022/11/04 10:03:14;;;;;;;1.05;0.95;;;19.40;53.00;;;;;;5113400;28;20052;-10
2022/11/04 10:05:52;;;;;;;0.80;0.80;;;19.40;53.00;;;;;;5113062;28;20043;-10
2022/11/04 10:08:39;;;;;;;1.00;0.90;;;19.40;52.90;;;;;;5112973;28;20436;-10
2022/11/04 10:11:16;;;;;;;0.80;0.80;;;19.40;52.90;;;;;;5094639;28;20055;-10
2022/11/04 10:14:00;;;;;;;1.02;0.70;;;19.40;52.90;;;;;;5113010;28;20078;-10
2022/11/04 10:16:54;;;;;;;0.88;0.70;;;19.40;52.90;;;;;;5113042;28;20043;-10
2022/11/04 10:19:33;;;;;;;1.55;1.00;;;19.40;53.00;;;;;;5112884;28;20480;-10
2022/11/04 10:22:31;;;;;;;1.17;1.00;;;19.40;53.00;;;;;;5113478;28;20096;-10
2022/11/04 10:25:19;;;;;;;1.00;0.90;;;19.40;53.00;;;;;;5112819;28;20048;-10
2022/11/04 10:27:46;;;;;;;0.70;0.70;;;19.30;53.00;;;;;;5113166;28;20048;-10
2022/11/04 10:30:17;;;;;;;0.85;0.60;;;19.30;53.00;;;;;;5112706;28;20135;-11
2022/11/04 10:32:57;;;;;;;1.05;0.98;;;19.30;53.00;;;;;;5112906;28;20054;-10
2022/11/04 10:35:32;;;;;;;0.80;0.77;;;19.30;53.10;;;;;;5113107;28;20497;-10
2022/11/04 10:38:18;;;;;;;2.85;1.20;;;19.30;53.00;;;;;;5113136;28;20502;-10
2022/11/04 10:40:47;;;;;;;4.30;1.00;;;19.30;53.00;;;;;;5112872;28;20057;-10
2022/11/04 10:43:27;;;;;;;0.90;0.90;;;19.30;53.00;;;;;;5112471;28;20084;-10
2022/11/04 10:46:30;;;;;;;1.20;0.80;;;19.30;53.00;;;;;;5112586;28;20151;-11
2022/11/04 10:49:04;;;;;;;1.63;0.93;;;19.30;53.00;;;;;;5115195;28;20510;-10
2022/11/04 10:51:30;;;;;;;0.93;0.85;;;19.30;53.00;;;;;;5116429;28;20058;-10
2022/11/04 10:53:58;;;;;;;1.20;1.02;;;19.30;53.00;;;;;;5116181;28;20040;-10
2022/11/04 10:56:34;;;;;;;1.10;0.93;;;19.30;53.00;;;;;;5116311;28;20491;-10
2022/11/04 10:59:13;;;;;;;0.80;0.80;;;19.40;53.10;;;;;;5098085;28;20047;-10
2022/11/04 11:01:48;;;;;;;1.15;0.70;;;19.30;53.00;;;;;;5116638;28;20055;-10
2022/11/04 11:04:25;;;;;;;0.93;0.82;;;19.30;53.00;;;;;;5116221;28;20086;-10
2022/11/04 11:06:53;;;;;;;1.20;1.10;;;19.40;53.00;;;;;;5113961;28;20138;-10
2022/11/04 11:09:28;;;;;;;1.20;0.90;;;19.30;53.00;;;;;;5115976;28;20491;-10
2022/11/04 11:12:00;;;;;;;1.45;0.90;;;19.40;53.10;;;;;;5116271;28;20120;-10
2022/11/04 11:14:30;;;;;;;1.02;0.93;;;19.30;53.00;;;;;;5115876;28;20052;-11
2022/11/04 11:16:57;;;;;;;1.10;1.00;;;19.40;53.00;;;;;;5115263;28;20039;-10
2022/11/04 11:19:24;;;;;;;1.27;0.93;;;19.40;53.00;;;;;;5097442;28;20104;-10
2022/11/04 11:21:55;;;;;;;1.42;0.90;;;19.40;53.00;;;;;;5115499;28;20510;-10
2022/11/04 11:24:22;;;;;;;;;;;19.40;53.50;;;;;;5116398;28;20119;-10
2022/11/04 11:26:57;;;;;;;0.90;0.90;;;19.40;53.00;;;;;;5115346;28;19923;-10
2022/11/04 11:29:39;;;;;;;0.90;0.90;;;19.40;52.90;;;;;;5115624;28;20070;-10
2022/11/04 11:32:05;;;;;;;;;;;19.40;52.90;;;;;;5116398;28;20403;-10
2022/11/04 11:34:35;;;;;;;0.93;0.90;;;19.40;52.90;;;;;;5115258;28;19923;-10
2022/11/04 11:37:03;;;;;;;2.42;0.80;;;19.40;52.90;;;;;;5115687;28;20052;-10
2022/11/04 11:39:31;;;;;;;1.13;1.02;;;19.40;52.90;;;;;;5115168;28;20490;-10
2022/11/04 11:42:01;;;;;;;0.82;0.82;;;19.40;52.90;;;;;;5115382;28;20051;-10
2022/11/04 11:44:43;;;;;;;0.93;0.88;;;19.40;53.40;;;;;;5115116;28;20047;-10
2022/11/04 11:47:24;;;;;;;0.88;0.88;;;19.40;52.90;;;;;;5115217;28;20395;-10
2022/11/04 11:50:17;;;;;;;1.42;1.10;;;19.40;52.90;;;;;;5115231;28;20047;-10
2022/11/04 11:52:48;;;;;;;0.80;0.80;;;19.40;52.90;;;;;;5115242;28;20058;-10
2022/11/04 11:55:26;;;;;;;0.75;0.75;;;19.40;52.80;;;;;;5115262;28;20047;-10
2022/11/04 11:58:08;;;;;;;0.82;0.82;;;19.40;52.90;;;;;;5114973;28;20059;-10
2022/11/04 12:00:41;;;;;;;1.48;1.10;;;19.40;52.90;;;;;;5113773;28;20054;-10
2022/11/04 12:03:39;;;;;;;0.80;0.80;;;19.40;52.90;;;;;;5114904;28;20466;-10
2022/11/04 12:06:29;;;;;;;1.10;1.00;;;19.40;52.90;;;;;;5107485;28;20051;-10
2022/11/04 12:09:26;;;;;;;0.85;0.77;;;19.40;52.90;;;;;;5115008;28;20139;-10
2022/11/04 12:12:01;;;;;;;0.95;0.90;;;19.40;52.90;;;;;;5110708;28;20079;-10
2022/11/04 12:14:38;;;;;;;1.25;1.15;;;19.40;53.00;;;;;;5115426;28;20062;-10
2022/11/04 12:17:21;;;;;;;0.93;0.80;;;19.40;52.90;;;;;;5114760;28;20044;-10
2022/11/04 12:20:24;;;;;;;0.90;0.90;;;19.40;53.00;;;;;;5114897;28;20052;-10
2022/11/04 12:23:16;;;;;;;1.48;1.20;;;19.40;52.90;;;;;;5114554;28;20131;-10
2022/11/04 12:26:11;;;;;;;1.05;0.95;;;19.40;53.00;;;;;;5114295;28;20055;-10
2022/11/04 12:28:48;;;;;;;1.17;1.08;;;19.40;53.00;;;;;;5114384;28;20074;-10
2022/11/04 12:31:34;;;;;;;0.77;0.77;;;19.40;53.00;;;;;;5114663;28;20460;-10
2022/11/04 12:34:34;;;;;;;1.70;1.10;;;19.40;53.00;;;;;;5114954;28;20051;-10
2022/11/04 12:37:13;;;;;;;1.35;0.98;;;19.30;53.00;;;;;;5114959;28;20051;-10
2022/11/04 12:40:07;;;;;;;1.38;1.27;;;19.30;53.00;;;;;;5114459;28;20079;-10
2022/11/04 12:42:48;;;;;;;1.73;1.13;;;19.40;53.10;;;;;;5114592;28;20063;-12
2022/11/04 12:45:42;;;;;;;2.08;1.33;;;19.40;53.00;;;;;;5114297;28;20051;-10
2022/11/04 12:48:31;;;;;;;1.92;1.00;;;19.40;53.00;;;;;;5114286;28;20044;-10
2022/11/04 12:51:31;;;;;;;1.10;1.00;;;19.40;52.90;;;;;;5096024;28;20047;-10
2022/11/04 12:54:21;;;;;;;1.25;1.13;;;19.40;52.90;;;;;;5109677;28;20055;-10
2022/11/04 12:57:01;;;;;;;2.23;1.00;;;19.40;52.90;;;;;;5096287;28;20048;-10
2022/11/04 12:59:49;;;;;;;2.15;1.10;;;19.40;52.90;;;;;;5113972;28;20299;-10
2022/11/04 13:02:27;;;;;;;1.13;1.02;;;19.40;53.00;;;;;;5114321;28;20054;-10
2022/11/04 13:05:06;;;;;;;1.05;0.90;;;19.40;53.00;;;;;;5095819;28;20044;-10
2022/11/04 13:07:50;;;;;;;1.27;1.10;;;19.40;53.00;;;;;;5113984;28;20096;-11
2022/11/04 13:10:33;;;;;;;0.82;0.82;;;19.40;53.10;;;;;;5113549;28;20398;-11
2022/11/04 13:13:01;;;;;;;1.25;1.15;;;19.30;53.00;;;;;;5114152;28;20536;-11
2022/11/04 13:15:32;;;;;;;1.25;1.02;;;19.30;53.00;;;;;;5113889;28;20150;-11
2022/11/04 13:18:04;;;;;;;1.40;1.17;;;19.30;53.00;;;;;;5114461;28;20392;-10
2022/11/04 13:20:33;;;;;;;1.45;1.00;;;19.40;53.00;;;;;;5113958;28;20043;-11
2022/11/04 13:23:04;;;;;;;1.35;0.85;;;19.40;53.00;;;;;;5114323;28;20490;-11
2022/11/04 13:25:38;;;;;;;1.15;0.90;;;19.40;53.10;;;;;;5114001;28;20062;-10
2022/11/04 13:28:14;;;;;;;1.35;1.10;;;19.40;53.00;;;;;;5113328;28;20055;-11
2022/11/04 13:30:59;;;;;;;1.20;1.10;;;19.40;53.00;;;;;;5113454;28;20509;-11
2022/11/04 13:33:25;;;;;;;1.23;1.05;;;19.40;53.00;;;;;;5113454;28;20044;-10
2022/11/04 13:35:56;;;;;;;1.00;1.00;;;19.40;53.00;;;;;;5113390;28;20561;-10
2022/11/04 13:38:44;;;;;;;1.30;0.90;;;19.40;53.00;;;;;;5113386;28;20082;-11
2022/11/04 13:41:44;;;;;;;1.92;1.10;;;19.40;53.00;;;;;;5113505;28;20446;-10